Home > Products > Valid Products > TAF

000
FTUS45 KCYS 280520
TAFCYS
TAF
KCYS 280520Z 2806/2906 28025G35KT P6SM SCT250
     FM290100 26015G25KT P6SM FEW250=



000
FTUS45 KCYS 280520
TAFLAR
TAF
KLAR 280520Z 2806/2906 24018G28KT P6SM SCT250
     FM281600 24026G38KT P6SM SCT250
     FM290100 24015G25KT P6SM SCT250=



000
FTUS45 KCYS 280520
TAFRWL
TAF
KRWL 280520Z 2806/2906 25015G25KT P6SM SCT150 SCT250
     FM281500 23024G37KT P6SM SCT250
     FM290100 23015G25KT P6SM SCT250=



000
FTUS45 KCYS 280520
TAFRWL
TAF
KRWL 280520Z 2806/2906 25015G25KT P6SM SCT150 SCT250
     FM281500 23024G37KT P6SM SCT250
     FM290100 23015G25KT P6SM SCT250=



000
FTUS45 KCYS 280520
TAFLAR
TAF
KLAR 280520Z 2806/2906 24018G28KT P6SM SCT250
     FM281600 24026G38KT P6SM SCT250
     FM290100 24015G25KT P6SM SCT250=



000
FTUS45 KCYS 280520
TAFCYS
TAF
KCYS 280520Z 2806/2906 28025G35KT P6SM SCT250
     FM290100 26015G25KT P6SM FEW250=



000
FTUS45 KCYS 272320
TAFLAR
TAF
KLAR 272320Z 2800/2824 26022G33KT P6SM FEW120
     FM280100 25015G27KT P6SM SCT250
     FM281600 24026G38KT P6SM SCT250=



000
FTUS45 KCYS 272320
TAFCYS
TAF
KCYS 272320Z 2800/2824 29026G35KT P6SM SCT200
     FM280200 28018G25KT P6SM SCT250
     FM281900 26023G37KT P6SM FEW250=



000
FTUS45 KCYS 272320
TAFRWL
TAF
KRWL 272320Z 2800/2824 25015G25KT P6SM SCT150 SCT250
     FM281500 23024G37KT P6SM SCT250=



000
FTUS45 KCYS 272320
TAFLAR
TAF
KLAR 272320Z 2800/2824 26022G33KT P6SM FEW120
     FM280100 25015G27KT P6SM SCT250
     FM281600 24026G38KT P6SM SCT250=



000
FTUS45 KCYS 272320
TAFRWL
TAF
KRWL 272320Z 2800/2824 25015G25KT P6SM SCT150 SCT250
     FM281500 23024G37KT P6SM SCT250=



000
FTUS45 KCYS 272320
TAFCYS
TAF
KCYS 272320Z 2800/2824 29026G35KT P6SM SCT200
     FM280200 28018G25KT P6SM SCT250
     FM281900 26023G37KT P6SM FEW250=



000
FTUS45 KCYS 271733
TAFCYS
TAF
KCYS 271733Z 2718/2818 27023G35KT P6SM SCT120 BKN200
     FM280100 28018G25KT P6SM SCT150 SCT250=



000
FTUS45 KCYS 271733
TAFCYS
TAF
KCYS 271733Z 2718/2818 27023G35KT P6SM SCT120 BKN200
     FM280100 28018G25KT P6SM SCT150 SCT250=



000
FTUS45 KCYS 271733
TAFLAR
TAF
KLAR 271733Z 2718/2818 25022G33KT P6SM BKN120 BKN200
     FM280100 25015G27KT P6SM SCT150 SCT250
     FM281600 24026G38KT P6SM SCT250=



000
FTUS45 KCYS 271733
TAFRWL
TAF
KRWL 271733Z 2718/2818 24025G35KT P6SM BKN120 BKN200
     FM280000 24015G25KT P6SM SCT150 SCT250
     FM281500 23024G27KT P6SM SCT250=



000
FTUS45 KCYS 271733
TAFRWL
TAF
KRWL 271733Z 2718/2818 24025G35KT P6SM BKN120 BKN200
     FM280000 24015G25KT P6SM SCT150 SCT250
     FM281500 23024G27KT P6SM SCT250=



000
FTUS45 KCYS 271733
TAFLAR
TAF
KLAR 271733Z 2718/2818 25022G33KT P6SM BKN120 BKN200
     FM280100 25015G27KT P6SM SCT150 SCT250
     FM281600 24026G38KT P6SM SCT250=



000
FTUS45 KCYS 271355 AAA
TAFLAR
TAF AMD
KLAR 271355Z 2714/2812 23020G30KT P6SM BKN100 BKN200
     FM271500 25025G35KT P6SM BKN120 BKN200
     FM280100 25020G30KT P6SM SCT150 SCT250=



000
FTUS45 KCYS 271355 AAA
TAFLAR
TAF AMD
KLAR 271355Z 2714/2812 23020G30KT P6SM BKN100 BKN200
     FM271500 25025G35KT P6SM BKN120 BKN200
     FM280100 25020G30KT P6SM SCT150 SCT250=



000
FTUS45 KCYS 271123
TAFCYS
TAF
KCYS 271123Z 2712/2812 27015G25KT P6SM BKN100 BKN200
     FM271600 27025G35KT P6SM BKN120 BKN200
     FM280100 28018G25KT P6SM SCT150 SCT250=



000
FTUS45 KCYS 271123
TAFRWL
TAF
KRWL 271123Z 2712/2812 25020G30KT P6SM BKN100 BKN200
     FM271500 24025G35KT P6SM BKN120 BKN200
     FM280000 24015G25KT P6SM SCT150 SCT250=



000
FTUS45 KCYS 271123
TAFRWL
TAF
KRWL 271123Z 2712/2812 25020G30KT P6SM BKN100 BKN200
     FM271500 24025G35KT P6SM BKN120 BKN200
     FM280000 24015G25KT P6SM SCT150 SCT250=



000
FTUS45 KCYS 271123
TAFLAR
TAF
KLAR 271123Z 2712/2812 25020G30KT P6SM BKN100 BKN200
     FM271500 25025G35KT P6SM BKN120 BKN200
     FM280100 25020G30KT P6SM SCT150 SCT250=



000
FTUS45 KCYS 271123
TAFLAR
TAF
KLAR 271123Z 2712/2812 25020G30KT P6SM BKN100 BKN200
     FM271500 25025G35KT P6SM BKN120 BKN200
     FM280100 25020G30KT P6SM SCT150 SCT250=



000
FTUS45 KCYS 271123
TAFCYS
TAF
KCYS 271123Z 2712/2812 27015G25KT P6SM BKN100 BKN200
     FM271600 27025G35KT P6SM BKN120 BKN200
     FM280100 28018G25KT P6SM SCT150 SCT250=



000
FTUS45 KCYS 270520
TAFRWL
TAF
KRWL 270520Z 2706/2806 25023G33KT P6SM SCT035 BKN150
     FM280000 24015G25KT P6SM SCT120=



000
FTUS45 KCYS 270520
TAFCYS
TAF
KCYS 270520Z 2706/2806 22008KT P6SM BKN060
     FM270900 28015G25KT P6SM BKN100
     FM271500 27020G30KT P6SM SCT100=



000
FTUS45 KCYS 270520
TAFLAR
TAF
KLAR 270520Z 2706/2806 25015KT P6SM SCT050 BKN120
     FM271100 25020G30KT P6SM BKN120=



000
FTUS45 KCYS 270520
TAFLAR
TAF
KLAR 270520Z 2706/2806 25015KT P6SM SCT050 BKN120
     FM271100 25020G30KT P6SM BKN120=



000
FTUS45 KCYS 270520
TAFCYS
TAF
KCYS 270520Z 2706/2806 22008KT P6SM BKN060
     FM270900 28015G25KT P6SM BKN100
     FM271500 27020G30KT P6SM SCT100=



000
FTUS45 KCYS 270520
TAFRWL
TAF
KRWL 270520Z 2706/2806 25023G33KT P6SM SCT035 BKN150
     FM280000 24015G25KT P6SM SCT120=



000
FTUS45 KCYS 262320
TAFLAR
TAF
KLAR 262320Z 2700/2724 26020G30KT P6SM SCT030 BKN050
     FM270100 25015KT P6SM SCT050 BKN120
     FM271200 25020G30KT P6SM BKN120=



000
FTUS45 KCYS 262320
TAFRWL
TAF
KRWL 262320Z 2700/2724 25023G33KT P6SM SCT035 BKN150=



000
FTUS45 KCYS 262320
TAFCYS
TAF
KCYS 262320Z 2700/2724 22008KT P6SM BKN060
     FM270900 28015G25KT P6SM BKN100=



000
FTUS45 KCYS 262320
TAFCYS
TAF
KCYS 262320Z 2700/2724 22008KT P6SM BKN060
     FM270900 28015G25KT P6SM BKN100=



000
FTUS45 KCYS 262320
TAFRWL
TAF
KRWL 262320Z 2700/2724 25023G33KT P6SM SCT035 BKN150=



000
FTUS45 KCYS 262320
TAFLAR
TAF
KLAR 262320Z 2700/2724 26020G30KT P6SM SCT030 BKN050
     FM270100 25015KT P6SM SCT050 BKN120
     FM271200 25020G30KT P6SM BKN120=



000
FTUS45 KCYS 261910 AAA
TAFCYS
TAF AMD
KCYS 261910Z 2619/2718 18012KT P6SM SCT007
     FM262000 28013KT P6SM SCT060
     FM270900 28015G25KT P6SM BKN100=



000
FTUS45 KCYS 261910 AAA
TAFCYS
TAF AMD
KCYS 261910Z 2619/2718 18012KT P6SM SCT007
     FM262000 28013KT P6SM SCT060
     FM270900 28015G25KT P6SM BKN100=



000
FTUS45 KCYS 261740
TAFLAR
TAF
KLAR 261740Z 2618/2718 28020G30KT P6SM SCT030 BKN050
     FM270100 25015G25KT P6SM SCT050 BKN120
     FM271200 25020G30KT P6SM BKN120=



000
FTUS45 KCYS 261740
TAFRWL
TAF
KRWL 261740Z 2618/2718 23030G40KT P6SM SCT020 BKN150
      TEMPO 2618/2620 BKN025
     FM270100 25023G33KT P6SM BKN150=



000
FTUS45 KCYS 261740
TAFCYS
TAF
KCYS 261740Z 2618/2718 18007KT P6SM OVC007
     FM262000 28013KT P6SM SCT015 BKN060
     FM270900 28015G25KT P6SM BKN100=



000
FTUS45 KCYS 261740
TAFLAR
TAF
KLAR 261740Z 2618/2718 28020G30KT P6SM SCT030 BKN050
     FM270100 25015G25KT P6SM SCT050 BKN120
     FM271200 25020G30KT P6SM BKN120=



000
FTUS45 KCYS 261740
TAFRWL
TAF
KRWL 261740Z 2618/2718 23030G40KT P6SM SCT020 BKN150
      TEMPO 2618/2620 BKN025
     FM270100 25023G33KT P6SM BKN150=



000
FTUS45 KCYS 261740
TAFCYS
TAF
KCYS 261740Z 2618/2718 18007KT P6SM OVC007
     FM262000 28013KT P6SM SCT015 BKN060
     FM270900 28015G25KT P6SM BKN100=



000
FTUS45 KCYS 261707 AAA
TAFRWL
TAF AMD
KRWL 261707Z 2617/2712 26025G35KT P6SM BKN020
     FM261800 25025G40KT P6SM BKN050 BKN100
     FM270000 25020G32KT P6SM SCT150=



000
FTUS45 KCYS 261707 AAA
TAFRWL
TAF AMD
KRWL 261707Z 2617/2712 26025G35KT P6SM BKN020
     FM261800 25025G40KT P6SM BKN050 BKN100
     FM270000 25020G32KT P6SM SCT150=



000
FTUS45 KCYS 261706 AAB
TAFCYS
TAF AMD
KCYS 261706Z 2617/2712 VRB05KT 6SM -SN OVC008
     FM261800 28018G28KT P6SM BKN050 OVC100
     FM270100 26013KT P6SM SCT150=



000
FTUS45 KCYS 261706 AAB
TAFCYS
TAF AMD
KCYS 261706Z 2617/2712 VRB05KT 6SM -SN OVC008
     FM261800 28018G28KT P6SM BKN050 OVC100
     FM270100 26013KT P6SM SCT150=



000
FTUS45 KCYS 261536 AAA
TAFLAR
TAF AMD
KLAR 261536Z 2616/2712 23007KT P6SM SCT020 OVC035
     FM261800 27020G35KT P6SM BKN050 OVC100
     FM270100 25020G30KT P6SM SCT150=



000
FTUS45 KCYS 261536 AAA
TAFLAR
TAF AMD
KLAR 261536Z 2616/2712 23007KT P6SM SCT020 OVC035
     FM261800 27020G35KT P6SM BKN050 OVC100
     FM270100 25020G30KT P6SM SCT150=



000
FTUS45 KCYS 261535 AAA
TAFCYS
TAF AMD
KCYS 261535Z 2616/2712 28010KT 6SM -SN OVC020
     FM261800 28018G28KT P6SM BKN050 OVC100
     FM270100 26013KT P6SM SCT150=



000
FTUS45 KCYS 261535 AAA
TAFCYS
TAF AMD
KCYS 261535Z 2616/2712 28010KT 6SM -SN OVC020
     FM261800 28018G28KT P6SM BKN050 OVC100
     FM270100 26013KT P6SM SCT150=



000
FTUS45 KCYS 261144
TAFRWL
TAF
KRWL 261144Z 2612/2712 26025G35KT P6SM SCT015 OVC040
      TEMPO 2612/2616 BKN015
     FM261700 25025G40KT P6SM BKN050 BKN100
     FM270000 25020G32KT P6SM SCT150=



000
FTUS45 KCYS 261144
TAFCYS
TAF
KCYS 261144Z 2612/2712 32010G18KT P6SM -SN BKN030 OVC050
      TEMPO 2612/2616 3SM -SN BKN015 OVC025
     FM261800 28018G28KT P6SM BKN050 OVC100
     FM270100 26013KT P6SM SCT150=



000
FTUS45 KCYS 261144
TAFCYS
TAF
KCYS 261144Z 2612/2712 32010G18KT P6SM -SN BKN030 OVC050
      TEMPO 2612/2616 3SM -SN BKN015 OVC025
     FM261800 28018G28KT P6SM BKN050 OVC100
     FM270100 26013KT P6SM SCT150=



000
FTUS45 KCYS 261144
TAFLAR
TAF
KLAR 261144Z 2612/2712 28012KT P6SM -SN SCT015 OVC050
      TEMPO 2612/2616 3SM -SN BKN015 OVC025
     FM261700 27020G35KT P6SM BKN050 OVC100
     FM270100 25020G30KT P6SM SCT150=



000
FTUS45 KCYS 261144
TAFLAR
TAF
KLAR 261144Z 2612/2712 28012KT P6SM -SN SCT015 OVC050
      TEMPO 2612/2616 3SM -SN BKN015 OVC025
     FM261700 27020G35KT P6SM BKN050 OVC100
     FM270100 25020G30KT P6SM SCT150=



000
FTUS45 KCYS 261144
TAFRWL
TAF
KRWL 261144Z 2612/2712 26025G35KT P6SM SCT015 OVC040
      TEMPO 2612/2616 BKN015
     FM261700 25025G40KT P6SM BKN050 BKN100
     FM270000 25020G32KT P6SM SCT150=



000
FTUS45 KCYS 260822 AAB
TAFLAR
TAF AMD
KLAR 260822Z 2608/2706 35012KT 5SM -SN BKN025 OVC040
      TEMPO 2608/2609 2SM -SN OVC015
     FM261100 30020G30KT P6SM VCSH SCT015 BKN050
     FM261800 27025G35KT P6SM SCT150=



000
FTUS45 KCYS 260821 AAA
TAFRWL
TAF AMD
KRWL 260821Z 2608/2706 36015KT P6SM SCT007 OVC012
     FM261200 26022G30KT P6SM VCSH SCT015 BKN035
     FM261700 24032G42KT P6SM SCT150
     FM270100 25020G30KT P6SM SCT150=



000
FTUS45 KCYS 260821 AAA
TAFRWL
TAF AMD
KRWL 260821Z 2608/2706 36015KT P6SM SCT007 OVC012
     FM261200 26022G30KT P6SM VCSH SCT015 BKN035
     FM261700 24032G42KT P6SM SCT150
     FM270100 25020G30KT P6SM SCT150=



000
FTUS45 KCYS 260616 AAA
TAFLAR
TAF AMD
KLAR 260616Z 2606/2706 36015KT 5SM -SN SCT015 OVC040
      TEMPO 2606/2609 1SM -SN OVC015
     FM261100 30020G30KT P6SM VCSH SCT015 BKN050
     FM261800 27025G35KT P6SM SCT150=



000
FTUS45 KCYS 260616 AAA
TAFLAR
TAF AMD
KLAR 260616Z 2606/2706 36015KT 5SM -SN SCT015 OVC040
      TEMPO 2606/2609 1SM -SN OVC015
     FM261100 30020G30KT P6SM VCSH SCT015 BKN050
     FM261800 27025G35KT P6SM SCT150=



000
FTUS45 KCYS 260614 AAA
TAFCYS
TAF AMD
KCYS 260614Z 2606/2706 36018G30KT P6SM -SN OVC040
      TEMPO 2606/2608 2SM -SN SCT007 OVC015
     FM261100 30012KT P6SM VCSH SCT015 BKN050
     FM261800 27018G28KT P6SM SCT150=



000
FTUS45 KCYS 260614 AAA
TAFCYS
TAF AMD
KCYS 260614Z 2606/2706 36018G30KT P6SM -SN OVC040
      TEMPO 2606/2608 2SM -SN SCT007 OVC015
     FM261100 30012KT P6SM VCSH SCT015 BKN050
     FM261800 27018G28KT P6SM SCT150=



000
FTUS45 KCYS 260520
TAFCYS
TAF
KCYS 260520Z 2606/2706 36018G30KT 3SM -SN SCT007 OVC040
      TEMPO 2606/2608 1SM -SN BKN007
     FM261100 30012KT P6SM VCSH SCT015 BKN050
     FM261800 27018G28KT P6SM SCT150=



000
FTUS45 KCYS 260520
TAFRWL
TAF
KRWL 260520Z 2606/2706 26026G36KT P6SM VCSH BKN015 BKN035
     FM260800 26020G28KT 2SM -SN SCT007 OVC015
     FM261200 26022G30KT P6SM VCSH SCT015 BKN035
     FM261700 24032G42KT P6SM SCT150
     FM270100 25020G30KT P6SM SCT150=



000
FTUS45 KCYS 260520
TAFLAR
TAF
KLAR 260520Z 2606/2706 30017G27KT 1SM -SN SCT007 OVC015
     FM261100 30020G30KT P6SM VCSH SCT015 BKN050
     FM261800 27025G35KT P6SM SCT150=



000
FTUS45 KCYS 260520
TAFCYS
TAF
KCYS 260520Z 2606/2706 36018G30KT 3SM -SN SCT007 OVC040
      TEMPO 2606/2608 1SM -SN BKN007
     FM261100 30012KT P6SM VCSH SCT015 BKN050
     FM261800 27018G28KT P6SM SCT150=



000
FTUS45 KCYS 260240 AAA
TAFCYS
TAF AMD
KCYS 260240Z 2603/2624 03012G20KT 1SM -SN OVC007
     FM261100 30012KT P6SM VCSH SCT015 BKN050
     FM261800 27018G28KT P6SM SCT150=



000
FTUS45 KCYS 260240 AAA
TAFCYS
TAF AMD
KCYS 260240Z 2603/2624 03012G20KT 1SM -SN OVC007
     FM261100 30012KT P6SM VCSH SCT015 BKN050
     FM261800 27018G28KT P6SM SCT150=



000
FTUS45 KCYS 252321
TAFLAR
TAF
KLAR 252321Z 2600/2624 28025G35KT P6SM VCSH SCT020 BKN050
     FM260300 30017G27KT 2SM -SN SCT007 OVC015
     FM261100 30020G30KT P6SM VCSH SCT015 BKN050
     FM261800 27025G35KT P6SM SCT150=



000
FTUS45 KCYS 252321
TAFRWL
TAF
KRWL 252321Z 2600/2624 26026G36KT P6SM VCSH SCT015 BKN035
     FM260300 26020G28KT 2SM -SN SCT007 OVC015
     FM260900 26022G30KT P6SM VCSH SCT015 BKN035
     FM261700 24032G42KT P6SM SCT150=



000
FTUS45 KCYS 252321
TAFCYS
TAF
KCYS 252321Z 2600/2624 30023G33KT P6SM VCSH SCT020 BKN080
     FM260200 33012G20KT 1SM -SN OVC007
     FM261100 30012KT P6SM VCSH SCT015 BKN050
     FM261800 27018G28KT P6SM SCT150=



000
FTUS45 KCYS 252321
TAFLAR
TAF
KLAR 252321Z 2600/2624 28025G35KT P6SM VCSH SCT020 BKN050
     FM260300 30017G27KT 2SM -SN SCT007 OVC015
     FM261100 30020G30KT P6SM VCSH SCT015 BKN050
     FM261800 27025G35KT P6SM SCT150=



000
FTUS45 KCYS 252321
TAFCYS
TAF
KCYS 252321Z 2600/2624 30023G33KT P6SM VCSH SCT020 BKN080
     FM260200 33012G20KT 1SM -SN OVC007
     FM261100 30012KT P6SM VCSH SCT015 BKN050
     FM261800 27018G28KT P6SM SCT150=



000
FTUS45 KCYS 252321
TAFRWL
TAF
KRWL 252321Z 2600/2624 26026G36KT P6SM VCSH SCT015 BKN035
     FM260300 26020G28KT 2SM -SN SCT007 OVC015
     FM260900 26022G30KT P6SM VCSH SCT015 BKN035
     FM261700 24032G42KT P6SM SCT150=



000
FTUS45 KCYS 252246 AAA
TAFRWL
TAF AMD
KRWL 252246Z 2523/2618 25025G37KT P6SM VCSH SCT030
     FM260300 26025G35KT 2SM -SN BLSN SCT007 OVC015
     FM260900 26020G30KT 6SM BLSN VCSH SCT007 BKN015
     FM261500 25030G40KT P6SM BKN025=



000
FTUS45 KCYS 252246 AAA
TAFRWL
TAF AMD
KRWL 252246Z 2523/2618 25025G37KT P6SM VCSH SCT030
     FM260300 26025G35KT 2SM -SN BLSN SCT007 OVC015
     FM260900 26020G30KT 6SM BLSN VCSH SCT007 BKN015
     FM261500 25030G40KT P6SM BKN025=



000
FTUS45 KCYS 251725
TAFLAR
TAF
KLAR 251725Z 2518/2618 27033G41KT P6SM OVC050
     FM252300 29025G35KT P6SM VCSH SCT020 OVC035
     FM260300 28018G28KT 2SM -SN SCT007 OVC015
     FM261500 26015G25KT 6SM -SHSN SCT015 BKN050=



000
FTUS45 KCYS 251725
TAFRWL
TAF
KRWL 251725Z 2518/2618 25033G47KT 6SM BLSN VCSH SCT015 BKN035
     FM252200 26025G35KT 2SM -SN BLSN SCT007 OVC015
     FM260900 26020G30KT 6SM BLSN VCSH SCT007 BKN015
     FM261500 25030G40KT P6SM BKN025=



000
FTUS45 KCYS 251725
TAFCYS
TAF
KCYS 251725Z 2518/2618 28035G50KT P6SM OVC100
     FM252300 31027G35KT P6SM VCSH SCT020 OVC050
     FM260300 33015G20KT 2SM -SN SCT007 OVC015
     FM261700 28012G18KT 6SM -SHSN SCT015 BKN050=



000
FTUS45 KCYS 251725
TAFRWL
TAF
KRWL 251725Z 2518/2618 25033G47KT 6SM BLSN VCSH SCT015 BKN035
     FM252200 26025G35KT 2SM -SN BLSN SCT007 OVC015
     FM260900 26020G30KT 6SM BLSN VCSH SCT007 BKN015
     FM261500 25030G40KT P6SM BKN025=



000
FTUS45 KCYS 251725
TAFLAR
TAF
KLAR 251725Z 2518/2618 27033G41KT P6SM OVC050
     FM252300 29025G35KT P6SM VCSH SCT020 OVC035
     FM260300 28018G28KT 2SM -SN SCT007 OVC015
     FM261500 26015G25KT 6SM -SHSN SCT015 BKN050=



000
FTUS45 KCYS 251725
TAFCYS
TAF
KCYS 251725Z 2518/2618 28035G50KT P6SM OVC100
     FM252300 31027G35KT P6SM VCSH SCT020 OVC050
     FM260300 33015G20KT 2SM -SN SCT007 OVC015
     FM261700 28012G18KT 6SM -SHSN SCT015 BKN050=



000
FTUS45 KCYS 251608 AAA
TAFRWL
TAF AMD
KRWL 251608Z 2516/2612 25027G42KT 6SM -SHSN BLSN SCT015 BKN035
     FM252200 25027G37KT 2SM -SN BLSN SCT007 OVC015
     FM260900 26020G30KT 6SM -SHSN SCT007 OVC020=



000
FTUS45 KCYS 251608 AAA
TAFRWL
TAF AMD
KRWL 251608Z 2516/2612 25027G42KT 6SM -SHSN BLSN SCT015 BKN035
     FM252200 25027G37KT 2SM -SN BLSN SCT007 OVC015
     FM260900 26020G30KT 6SM -SHSN SCT007 OVC020=



000
FTUS45 KCYS 251147
TAFLAR
TAF
KLAR 251147Z 2512/2612 27020G30KT P6SM SCT080
     FM251500 27033G41KT P6SM BKN080
     FM252300 28020G30KT P6SM VCSH SCT020 OVC050
     FM260300 28018G28KT 2SM -SN SCT007 OVC020=



000
FTUS45 KCYS 251147
TAFCYS
TAF
KCYS 251147Z 2512/2612 27020G30KT P6SM SCT100
     FM251700 28032G43KT P6SM BKN100
     FM252300 30018G28KT P6SM VCSH SCT020 OVC070
     FM260300 32012G20KT 3SM -SN SCT010 BKN020=



000
FTUS45 KCYS 251147
TAFRWL
TAF
KRWL 251147Z 2512/2612 25023G33KT P6SM SCT080
     FM251500 25030G45KT 6SM -SHSN BLSN SCT015 OVC030
     FM252200 25027G37KT 2SM -SN BLSN SCT007 OVC015
     FM260900 26020G30KT 6SM -SHSN SCT007 OVC020=



000
FTUS45 KCYS 251147
TAFLAR
TAF
KLAR 251147Z 2512/2612 27020G30KT P6SM SCT080
     FM251500 27033G41KT P6SM BKN080
     FM252300 28020G30KT P6SM VCSH SCT020 OVC050
     FM260300 28018G28KT 2SM -SN SCT007 OVC020=



000
FTUS45 KCYS 251147
TAFCYS
TAF
KCYS 251147Z 2512/2612 27020G30KT P6SM SCT100
     FM251700 28032G43KT P6SM BKN100
     FM252300 30018G28KT P6SM VCSH SCT020 OVC070
     FM260300 32012G20KT 3SM -SN SCT010 BKN020=



000
FTUS45 KCYS 251147
TAFRWL
TAF
KRWL 251147Z 2512/2612 25023G33KT P6SM SCT080
     FM251500 25030G45KT 6SM -SHSN BLSN SCT015 OVC030
     FM252200 25027G37KT 2SM -SN BLSN SCT007 OVC015
     FM260900 26020G30KT 6SM -SHSN SCT007 OVC020=



    US Dept of Commerce
    National Oceanic and Atmospheric Administration
    National Weather Service
    1325 East West Highway
    Silver Spring, MD 20910
    Page Author: NWS Internet Services Team
Disclaimer
Information Quality
Credits
Glossary
Privacy Policy
Freedom of Information Act (FOIA)
About Us
Career Opportunities